Time;durP1;ratioP1;P1;durP2;ratioP2;P2;SDS_P1;SDS_P2;PMS_P1;PMS_P2;Temp;Humidity;BMP_temperature;BMP_pressure;BME280_temperature;BME280_humidity;BME280_pressure;Samples;Min_cycle;Max_cycle;Signal;HPM_P1;HPM_P2
2022/04/04 00:01:11;;;;;;;;;;;;;;;-4.46;73.14;98646.34;2600975;28;19924;-79
2022/04/04 00:02:26;;;;;;;;;;;;;;;-4.46;72.87;98645.47;2603564;28;19976;-78
2022/04/04 00:03:42;;;;;;;;;;;;;;;-4.44;73.33;98638.72;2601663;28;19925;-79
2022/04/04 00:04:57;;;;;;;;;;;;;;;-4.43;73.07;98643.91;2601987;28;20443;-80
2022/04/04 00:06:13;;;;;;;;;;;;;;;-4.30;72.70;98637.50;2603967;28;19978;-79
2022/04/04 00:07:28;;;;;;;;;;;;;;;-4.29;73.24;98639.25;2603111;28;19925;-78
2022/04/04 00:08:44;;;;;;;;;;;;;;;-4.36;73.55;98636.44;2601442;28;20372;-78
2022/04/04 00:09:59;;;;;;;;;;;;;;;-4.38;73.60;98641.50;2603758;28;19924;-78
2022/04/04 00:11:15;;;;;;;;;;;;;;;-4.38;73.24;98636.41;2602981;28;20257;-79
2022/04/04 00:12:30;;;;;;;;;;;;;;;-4.37;72.86;98640.69;2603435;28;20386;-78
2022/04/04 00:13:46;;;;;;;;;;;;;;;-4.34;72.56;98640.78;2604428;28;19924;-78
2022/04/04 00:15:01;;;;;;;;;;;;;;;-4.36;73.39;98633.88;2601934;28;19932;-79
2022/04/04 00:16:17;;;;;;;;;;;;;;;-4.30;74.15;98641.78;2603049;28;20384;-79
2022/04/04 00:17:32;;;;;;;;;;;;;;;-4.31;73.81;98635.78;2601843;28;19964;-79
2022/04/04 00:18:48;;;;;;;;;;;;;;;-4.33;73.27;98636.53;2602343;28;19925;-78
2022/04/04 00:20:05;;;;;;;;;;;;;;;-4.32;72.92;98634.03;2601070;28;20001;-78
2022/04/04 00:21:21;;;;;;;;;;;;;;;-4.30;73.03;98636.66;2602850;28;20432;-78
2022/04/04 00:22:36;;;;;;;;;;;;;;;-4.31;73.47;98637.47;2604436;28;19921;-78
2022/04/04 00:23:52;;;;;;;;;;;;;;;-4.31;73.18;98634.94;2603561;28;19925;-78
2022/04/04 00:25:07;;;;;;;;;;;;;;;-4.34;73.54;98640.78;2602647;28;19924;-78
2022/04/04 00:26:23;;;;;;;;;;;;;;;-4.33;73.87;98639.97;2604501;28;19925;-78
2022/04/04 00:27:38;;;;;;;;;;;;;;;-4.37;73.55;98633.03;2602232;28;19925;-78
2022/04/04 00:28:54;;;;;;;;;;;;;;;-4.40;73.62;98631.22;2600697;28;19928;-79
2022/04/04 00:30:09;;;;;;;;;;;;;;;-4.40;73.02;98626.09;2601882;28;20470;-78
2022/04/04 00:31:25;;;;;;;;;;;;;;;-4.43;73.92;98632.78;2602674;28;19924;-79
2022/04/04 00:32:41;;;;;;;;;;;;;;;-4.48;74.10;98627.50;2603697;28;19932;-78
2022/04/04 00:33:56;;;;;;;;;;;;;;;-4.50;73.81;98624.03;2603841;28;19936;-78
2022/04/04 00:35:12;;;;;;;;;;;;;;;-4.51;73.22;98627.41;2601771;28;20739;-79
2022/04/04 00:36:27;;;;;;;;;;;;;;;-4.53;73.23;98636.72;2601622;28;19921;-79
2022/04/04 00:37:43;;;;;;;;;;;;;;;-4.56;73.92;98628.94;2601834;28;19980;-79
2022/04/04 00:38:58;;;;;;;;;;;;;;;-4.62;74.64;98628.72;2602381;28;19920;-79
2022/04/04 00:40:13;;;;;;;;;;;;;;;-4.69;75.16;98630.19;2602457;28;20318;-79
2022/04/04 00:41:29;;;;;;;;;;;;;;;-4.71;74.93;98629.25;2603612;28;19987;-79
2022/04/04 00:42:44;;;;;;;;;;;;;;;-4.75;75.07;98635.06;2602255;28;20002;-79
2022/04/04 00:44:00;;;;;;;;;;;;;;;-4.80;75.42;98627.25;2602561;28;19924;-78
2022/04/04 00:45:15;;;;;;;;;;;;;;;-4.85;75.35;98624.53;2601063;28;19929;-78
2022/04/04 00:46:31;;;;;;;;;;;;;;;-4.86;74.96;98629.59;2602631;28;20292;-78
2022/04/04 00:47:46;;;;;;;;;;;;;;;-4.95;75.36;98630.13;2603033;28;20442;-79
2022/04/04 00:49:02;;;;;;;;;;;;;;;-5.06;76.19;98627.16;2603307;28;19928;-78
2022/04/04 00:50:17;;;;;;;;;;;;;;;-5.14;76.05;98629.41;2601274;28;19925;-78
2022/04/04 00:51:32;;;;;;;;;;;;;;;-5.19;76.11;98624.94;2603154;28;20348;-78
2022/04/04 00:52:48;;;;;;;;;;;;;;;-5.12;75.61;98632.03;2602331;28;20023;-80
2022/04/04 00:54:04;;;;;;;;;;;;;;;-5.29;75.63;98628.84;2602676;28;19924;-78
2022/04/04 00:55:20;;;;;;;;;;;;;;;-5.35;75.70;98620.97;2602285;28;20276;-78
2022/04/04 00:56:36;;;;;;;;;;;;;;;-5.21;76.11;98624.03;2602221;28;19932;-79
2022/04/04 00:57:53;;;;;;;;;;;;;;;-5.44;75.52;98629.13;2603637;28;20348;-82
2022/04/04 00:59:13;;;;;;;;;;;;;;;-5.43;75.29;98616.41;2601209;28;20379;-79
2022/04/04 01:00:29;;;;;;;;;;;;;;;-5.25;75.36;98617.94;2602443;28;20315;-79
2022/04/04 01:01:45;;;;;;;;;;;;;;;-5.30;76.08;98622.00;2600959;28;19960;-78
2022/04/04 01:03:00;;;;;;;;;;;;;;;-5.38;75.33;98616.59;2601437;28;20025;-78
2022/04/04 01:04:16;;;;;;;;;;;;;;;-5.48;75.80;98620.50;2602723;28;19928;-78
2022/04/04 01:05:32;;;;;;;;;;;;;;;-5.44;75.65;98618.94;2601083;28;19925;-78
2022/04/04 01:06:47;;;;;;;;;;;;;;;-5.35;75.33;98608.22;2601876;28;20405;-78
2022/04/04 01:08:03;;;;;;;;;;;;;;;-5.37;75.50;98615.78;2601542;28;19951;-77
2022/04/04 01:09:18;;;;;;;;;;;;;;;-5.27;74.98;98611.91;2601191;28;20123;-79
2022/04/04 01:10:34;;;;;;;;;;;;;;;-5.26;73.96;98604.31;2603059;28;19925;-82
2022/04/04 01:12:02;;;;;;;;;;;;;;;-5.09;74.21;98608.31;2600642;28;19947;-78
2022/04/04 01:13:17;;;;;;;;;;;;;;;-5.22;73.96;98607.84;2603132;28;20391;-81
2022/04/04 01:14:34;;;;;;;;;;;;;;;-5.43;73.40;98600.25;2602434;28;19925;-77
2022/04/04 01:15:49;;;;;;;;;;;;;;;-5.40;73.78;98605.47;2603939;28;19992;-78
2022/04/04 01:17:06;;;;;;;;;;;;;;;-5.36;73.32;98607.31;2602573;28;19925;-78
2022/04/04 01:18:21;;;;;;;;;;;;;;;-5.31;73.30;98595.63;2602541;28;19963;-78
2022/04/04 01:19:37;;;;;;;;;;;;;;;-5.27;73.76;98600.03;2604035;28;20453;-78
2022/04/04 01:20:52;;;;;;;;;;;;;;;-5.29;73.53;98598.22;2602902;28;19925;-78
2022/04/04 01:22:09;;;;;;;;;;;;;;;-5.28;73.40;98602.50;2602260;28;19960;-79
2022/04/04 01:23:25;;;;;;;;;;;;;;;-5.30;74.21;98594.81;2602706;28;19924;-78
2022/04/04 01:24:40;;;;;;;;;;;;;;;-5.26;73.92;98590.66;2600660;28;19921;-79
2022/04/04 01:25:56;;;;;;;;;;;;;;;-5.20;73.76;98592.59;2600566;28;19924;-78
2022/04/04 01:27:12;;;;;;;;;;;;;;;-5.28;74.21;98603.38;2603686;28;19970;-77
2022/04/04 01:28:27;;;;;;;;;;;;;;;-5.30;73.82;98597.38;2601487;28;19925;-78
2022/04/04 01:29:43;;;;;;;;;;;;;;;-5.29;73.45;98594.00;2602416;28;20020;-78
2022/04/04 01:30:59;;;;;;;;;;;;;;;-5.27;73.57;98597.47;2601739;28;20536;-78
2022/04/04 01:32:14;;;;;;;;;;;;;;;-5.47;74.02;98599.25;2601036;28;20027;-77
2022/04/04 01:33:30;;;;;;;;;;;;;;;-5.60;74.03;98594.50;2603122;28;19941;-77
2022/04/04 01:34:45;;;;;;;;;;;;;;;-5.68;74.19;98591.66;2603113;28;19970;-78
2022/04/04 01:36:01;;;;;;;;;;;;;;;-5.63;74.24;98585.03;2602009;28;19932;-78
2022/04/04 01:37:16;;;;;;;;;;;;;;;-5.47;74.26;98594.16;2600462;28;19975;-78
2022/04/04 01:38:32;;;;;;;;;;;;;;;-5.42;73.88;98587.53;2601830;28;19947;-78
2022/04/04 01:39:47;;;;;;;;;;;;;;;-5.42;73.52;98592.66;2602407;28;19920;-78
2022/04/04 01:41:02;;;;;;;;;;;;;;;-5.45;73.15;98591.66;2601683;28;19927;-77
2022/04/04 01:42:18;;;;;;;;;;;;;;;-5.40;73.24;98595.25;2601614;28;20360;-78
2022/04/04 01:43:33;;;;;;;;;;;;;;;-5.35;73.20;98593.75;2600674;28;19968;-77
2022/04/04 01:44:49;;;;;;;;;;;;;;;-5.34;73.16;98585.28;2603912;28;20008;-80
2022/04/04 01:47:38;;;;;;;;;;;;;;;-5.39;74.08;98594.44;2602168;28;19972;-77
2022/04/04 01:48:55;;;;;;;;;;;;;;;-5.36;73.17;98586.06;2603455;28;19924;-78
2022/04/04 01:50:11;;;;;;;;;;;;;;;-5.23;73.04;98582.25;2601528;28;19931;-77
2022/04/04 01:51:27;;;;;;;;;;;;;;;-5.20;72.86;98584.94;2600658;28;19929;-82
2022/04/04 01:53:25;;;;;;;;;;;;;;;-5.23;73.15;98584.81;2604222;28;19990;-78
2022/04/04 01:54:18;;;;;;;;;;;;;;;-5.29;74.72;98582.91;2601710;28;20334;-78
2022/04/04 01:55:33;;;;;;;;;;;;;;;-5.29;74.76;98581.22;2600497;28;19929;-77
2022/04/04 01:56:49;;;;;;;;;;;;;;;-5.30;74.00;98576.06;2601755;28;19925;-78
2022/04/04 01:58:05;;;;;;;;;;;;;;;-5.35;73.81;98580.97;2601493;28;19994;-78
2022/04/04 01:59:20;;;;;;;;;;;;;;;-5.31;73.18;98580.31;2603646;28;20015;-79
2022/04/04 02:00:36;;;;;;;;;;;;;;;-5.29;73.11;98580.34;2602982;28;19933;-78
2022/04/04 02:01:51;;;;;;;;;;;;;;;-5.26;72.69;98578.78;2602432;28;19970;-80
2022/04/04 02:03:07;;;;;;;;;;;;;;;-5.26;73.36;98576.25;2602529;28;19925;-80
2022/04/04 02:04:23;;;;;;;;;;;;;;;-5.33;73.51;98574.25;2603354;28;20287;-79
2022/04/04 02:05:39;;;;;;;;;;;;;;;-5.26;73.92;98575.34;2601311;28;20348;-78
2022/04/04 02:06:54;;;;;;;;;;;;;;;-5.28;73.38;98567.66;2602172;28;19921;-78
2022/04/04 02:08:09;;;;;;;;;;;;;;;-5.27;73.41;98573.63;2602306;28;20789;-79
2022/04/04 02:09:25;;;;;;;;;;;;;;;-5.28;73.40;98575.31;2602530;28;20118;-78
2022/04/04 02:10:40;;;;;;;;;;;;;;;-5.28;73.73;98570.22;2603475;28;19924;-78
2022/04/04 02:11:56;;;;;;;;;;;;;;;-5.19;74.41;98567.13;2603809;28;19939;-80
2022/04/04 02:13:11;;;;;;;;;;;;;;;-5.19;73.69;98567.13;2601657;28;20355;-79
2022/04/04 02:14:27;;;;;;;;;;;;;;;-5.16;73.43;98569.78;2603028;28;19936;-79
2022/04/04 02:15:42;;;;;;;;;;;;;;;-5.18;73.56;98565.41;2601948;28;20433;-79
2022/04/04 02:16:58;;;;;;;;;;;;;;;-5.19;74.77;98571.34;2601396;28;20428;-79
2022/04/04 02:18:14;;;;;;;;;;;;;;;-5.19;75.51;98569.69;2602500;28;19993;-82
2022/04/04 02:19:29;;;;;;;;;;;;;;;-5.17;75.32;98568.03;2601550;28;19991;-79
2022/04/04 02:20:45;;;;;;;;;;;;;;;-5.16;74.76;98569.78;2602157;28;19929;-78
2022/04/04 02:22:00;;;;;;;;;;;;;;;-5.16;75.12;98568.94;2600872;28;19970;-79
2022/04/04 02:23:18;;;;;;;;;;;;;;;-5.14;75.24;98562.19;2600442;28;19933;-79
2022/04/04 02:24:34;;;;;;;;;;;;;;;-5.16;75.88;98559.56;2600625;28;20338;-79
2022/04/04 02:25:50;;;;;;;;;;;;;;;-5.14;76.24;98560.50;2603171;28;19925;-79
2022/04/04 02:27:05;;;;;;;;;;;;;;;-5.13;75.68;98559.69;2602404;28;19948;-79
2022/04/04 02:28:21;;;;;;;;;;;;;;;-5.11;75.00;98558.03;2602591;28;20419;-78
2022/04/04 02:29:36;;;;;;;;;;;;;;;-5.12;75.48;98560.56;2601193;28;20013;-79
2022/04/04 02:30:52;;;;;;;;;;;;;;;-5.11;75.31;98557.19;2602346;28;19929;-79
2022/04/04 02:32:08;;;;;;;;;;;;;;;-5.11;75.25;98557.19;2602482;28;19924;-78
2022/04/04 02:33:23;;;;;;;;;;;;;;;-5.12;75.51;98550.34;2600708;28;19975;-79
2022/04/04 02:34:39;;;;;;;;;;;;;;;-5.14;76.08;98557.94;2602549;28;19943;-78
2022/04/04 02:35:54;;;;;;;;;;;;;;;-5.15;76.31;98552.81;2603364;28;19925;-78
2022/04/04 02:37:10;;;;;;;;;;;;;;;-5.16;75.66;98551.91;2601039;28;19972;-79
2022/04/04 02:38:26;;;;;;;;;;;;;;;-5.07;75.77;98545.41;2601678;28;20025;-78
2022/04/04 02:39:42;;;;;;;;;;;;;;;-5.01;75.44;98553.28;2601965;28;20283;-80
2022/04/04 02:40:58;;;;;;;;;;;;;;;-5.05;75.69;98541.22;2601241;28;19924;-81
2022/04/04 02:42:13;;;;;;;;;;;;;;;-5.05;74.89;98539.53;2600557;28;19924;-79
2022/04/04 02:43:28;;;;;;;;;;;;;;;-5.05;74.69;98531.88;2603315;28;19925;-79
2022/04/04 02:44:44;;;;;;;;;;;;;;;-5.01;74.54;98532.84;2604588;28;20244;-79
2022/04/04 02:46:00;;;;;;;;;;;;;;;-5.04;74.91;98535.31;2603678;28;19929;-80
2022/04/04 02:47:15;;;;;;;;;;;;;;;-5.16;75.10;98543.41;2604367;28;19939;-79
2022/04/04 02:48:30;;;;;;;;;;;;;;;-5.29;75.36;98542.94;2603643;28;19974;-79
2022/04/04 02:49:46;;;;;;;;;;;;;;;-5.36;75.30;98543.53;2604070;28;19968;-79
2022/04/04 02:51:01;;;;;;;;;;;;;;;-5.44;75.20;98538.13;2604753;28;20088;-78
2022/04/04 02:52:17;;;;;;;;;;;;;;;-5.46;75.54;98541.44;2602455;28;19925;-79
2022/04/04 02:53:32;;;;;;;;;;;;;;;-5.47;75.28;98542.25;2603174;28;19978;-78
2022/04/04 02:54:48;;;;;;;;;;;;;;;-5.46;75.28;98541.44;2602760;28;19975;-78
2022/04/04 02:57:37;;;;;;;;;;;;;;;-5.56;75.54;98538.56;2603359;28;20685;-78
2022/04/04 02:58:53;;;;;;;;;;;;;;;-5.56;75.52;98538.56;2605038;28;19921;-79
2022/04/04 03:00:09;;;;;;;;;;;;;;;-5.56;75.30;98537.69;2603776;28;19928;-78
2022/04/04 03:01:25;;;;;;;;;;;;;;;-5.60;75.09;98529.03;2602673;28;19968;-79
2022/04/04 03:02:40;;;;;;;;;;;;;;;-5.62;75.00;98533.22;2605564;28;20372;-80
2022/04/04 03:03:55;;;;;;;;;;;;;;;-5.62;74.98;98533.22;2602930;28;20745;-79
2022/04/04 03:05:11;;;;;;;;;;;;;;;-5.60;75.65;98535.81;2602167;28;19924;-79
2022/04/04 03:06:27;;;;;;;;;;;;;;;-5.64;75.23;98529.72;2602275;28;20016;-79
2022/04/04 03:07:42;;;;;;;;;;;;;;;-5.62;75.22;98537.47;2602083;28;19937;-79
2022/04/04 03:08:57;;;;;;;;;;;;;;;-5.65;74.70;98530.53;2603817;28;19925;-79
2022/04/04 03:10:13;;;;;;;;;;;;;;;-5.68;74.62;98533.84;2603131;28;20399;-78
2022/04/04 03:11:29;;;;;;;;;;;;;;;-5.70;74.52;98535.47;2604572;28;19951;-79
2022/04/04 03:12:48;;;;;;;;;;;;;;;-5.74;74.72;98533.63;2603095;28;20359;-78
2022/04/04 03:14:04;;;;;;;;;;;;;;;-5.79;74.22;98531.69;2603836;28;19924;-79
2022/04/04 03:15:21;;;;;;;;;;;;;;;-5.83;74.49;98535.81;2602082;28;19935;-78
2022/04/04 03:16:37;;;;;;;;;;;;;;;-5.90;75.46;98533.84;2602504;28;19976;-79
2022/04/04 03:17:53;;;;;;;;;;;;;;;-5.93;75.56;98533.72;2602653;28;19925;-79
2022/04/04 03:19:08;;;;;;;;;;;;;;;-5.98;75.57;98534.41;2603522;28;19964;-79
2022/04/04 03:20:25;;;;;;;;;;;;;;;-6.04;75.76;98530.78;2603523;28;20312;-79
2022/04/04 03:21:40;;;;;;;;;;;;;;;-6.07;75.64;98534.09;2602014;28;19991;-80
2022/04/04 03:22:56;;;;;;;;;;;;;;;-6.13;75.52;98531.28;2603338;28;19929;-78
2022/04/04 03:24:12;;;;;;;;;;;;;;;-6.15;75.93;98527.81;2601910;28;20360;-78
2022/04/04 03:25:27;;;;;;;;;;;;;;;-6.13;76.41;98528.72;2602380;28;19921;-79
2022/04/04 03:26:43;;;;;;;;;;;;;;;-6.13;75.85;98531.28;2603909;28;20342;-78
2022/04/04 03:27:58;;;;;;;;;;;;;;;-6.15;76.01;98528.66;2602505;28;19931;-78
2022/04/04 03:29:14;;;;;;;;;;;;;;;-6.14;75.54;98527.00;2603394;28;19925;-77
2022/04/04 03:30:29;;;;;;;;;;;;;;;-6.16;76.18;98521.81;2601352;28;19964;-77
2022/04/04 03:31:45;;;;;;;;;;;;;;;-6.27;76.58;98525.66;2603815;28;20374;-77
2022/04/04 03:33:00;;;;;;;;;;;;;;;-6.28;76.73;98523.91;2602832;28;19931;-78
2022/04/04 03:34:16;;;;;;;;;;;;;;;-6.27;77.78;98523.94;2601467;28;19929;-77
2022/04/04 03:35:33;;;;;;;;;;;;;;;-6.25;78.40;98531.66;2602688;28;19925;-77
2022/04/04 03:36:49;;;;;;;;;;;;;;;-6.19;77.38;98528.50;2602897;28;19945;-78
2022/04/04 03:38:06;;;;;;;;;;;;;;;-6.15;77.09;98532.91;2603767;28;20387;-77
2022/04/04 03:39:21;;;;;;;;;;;;;;;-6.21;76.74;98536.06;2601827;28;19932;-77
2022/04/04 03:40:37;;;;;;;;;;;;;;;-6.19;76.89;98536.16;2603504;28;19960;-77
2022/04/04 03:41:54;;;;;;;;;;;;;;;-6.24;76.64;98531.72;2603022;28;19932;-78
2022/04/04 03:43:10;;;;;;;;;;;;;;;-6.25;76.42;98529.97;2602716;28;19925;-77
2022/04/04 03:44:25;;;;;;;;;;;;;;;-6.25;76.32;98536.75;2602532;28;19994;-77
2022/04/04 03:45:41;;;;;;;;;;;;;;;-6.25;75.94;98529.13;2603607;28;19925;-78
2022/04/04 03:46:56;;;;;;;;;;;;;;;-6.29;75.70;98532.31;2601693;28;20387;-77
2022/04/04 03:48:12;;;;;;;;;;;;;;;-6.33;76.85;98530.47;2604601;28;19928;-78
2022/04/04 03:49:27;;;;;;;;;;;;;;;-6.35;77.17;98532.97;2602799;28;19927;-78
2022/04/04 03:50:45;;;;;;;;;;;;;;;-6.38;77.14;98530.28;2603024;28;19928;-78
2022/04/04 03:52:00;;;;;;;;;;;;;;;-6.32;76.56;98527.13;2603090;28;19925;-78
2022/04/04 03:53:16;;;;;;;;;;;;;;;-6.37;76.73;98529.47;2603059;28;19951;-77
2022/04/04 03:54:31;;;;;;;;;;;;;;;-6.39;76.59;98518.34;2603794;28;19932;-77
2022/04/04 03:55:47;;;;;;;;;;;;;;;-6.46;76.68;98524.88;2603407;28;19936;-78
2022/04/04 03:57:03;;;;;;;;;;;;;;;-6.52;77.39;98524.63;2603328;28;19932;-78
2022/04/04 03:58:18;;;;;;;;;;;;;;;-6.48;77.41;98531.59;2602670;28;19924;-77
2022/04/04 03:59:33;;;;;;;;;;;;;;;-6.45;76.77;98526.63;2601287;28;19970;-79
2022/04/04 04:00:49;;;;;;;;;;;;;;;-6.45;76.87;98526.63;2603762;28;20277;-80
2022/04/04 04:02:04;;;;;;;;;;;;;;;-6.46;77.24;98529.97;2604344;28;19925;-78
2022/04/04 04:03:20;;;;;;;;;;;;;;;-6.50;77.57;98525.56;2605029;28;19935;-78
2022/04/04 04:04:35;;;;;;;;;;;;;;;-6.47;77.39;98518.03;2600943;28;19925;-77
2022/04/04 04:06:11;;;;;;;;;;;;;;;-6.51;77.53;98528.91;2601343;28;20302;-79
2022/04/04 04:07:26;;;;;;;;;;;;;;;-6.48;77.62;98526.50;2601717;28;19925;-79
2022/04/04 04:08:46;;;;;;;;;;;;;;;-6.47;76.79;98527.38;2603149;28;19924;-78
2022/04/04 04:10:01;;;;;;;;;;;;;;;-6.51;77.17;98526.38;2604748;28;19927;-78
2022/04/04 04:11:19;;;;;;;;;;;;;;;-6.51;77.34;98528.91;2603281;28;19971;-78
2022/04/04 04:12:34;;;;;;;;;;;;;;;-6.48;77.10;98520.53;2602271;28;19925;-78
2022/04/04 04:13:50;;;;;;;;;;;;;;;-6.39;76.44;98524.34;2604480;28;19925;-78
2022/04/04 04:15:06;;;;;;;;;;;;;;;-6.41;77.44;98523.41;2601792;28;19922;-79
2022/04/04 04:16:23;;;;;;;;;;;;;;;-6.31;76.71;98522.09;2602368;28;19928;-79
2022/04/04 04:17:38;;;;;;;;;;;;;;;-6.33;77.46;98522.81;2601288;28;20354;-80
2022/04/04 04:18:54;;;;;;;;;;;;;;;-6.32;76.62;98516.91;2602215;28;19928;-79
2022/04/04 04:20:29;;;;;;;;;;;;;;;-6.40;77.68;98520.03;2600723;28;19925;-78
2022/04/04 04:21:44;;;;;;;;;;;;;;;-6.39;77.05;98523.44;2603477;28;19925;-79
2022/04/04 04:23:04;;;;;;;;;;;;;;;-6.38;77.44;98520.09;2601358;28;19928;-79
2022/04/04 04:24:19;;;;;;;;;;;;;;;-6.30;76.61;98516.19;2604743;28;20074;-82
2022/04/04 04:25:35;;;;;;;;;;;;;;;-6.25;77.03;98519.78;2604528;28;19929;-78
2022/04/04 04:26:51;;;;;;;;;;;;;;;-6.15;77.05;98515.06;2601294;28;19931;-78
2022/04/04 04:28:07;;;;;;;;;;;;;;;-6.07;76.67;98516.25;2602880;28;20392;-78
2022/04/04 04:29:22;;;;;;;;;;;;;;;-5.99;77.50;98511.41;2602424;28;19924;-78
2022/04/04 04:30:38;;;;;;;;;;;;;;;-6.00;78.03;98513.06;2603377;28;20680;-78
2022/04/04 04:31:54;;;;;;;;;;;;;;;-5.97;77.84;98510.63;2602958;28;20388;-79
2022/04/04 04:33:09;;;;;;;;;;;;;;;-5.96;77.90;98514.94;2603700;28;19925;-78
2022/04/04 04:34:25;;;;;;;;;;;;;;;-5.95;78.60;98509.00;2601562;28;19982;-78
2022/04/04 04:35:40;;;;;;;;;;;;;;;-5.92;78.07;98513.38;2603152;28;20390;-81
2022/04/04 04:36:56;;;;;;;;;;;;;;;-5.83;77.76;98507.75;2603309;28;19933;-79
2022/04/04 04:38:11;;;;;;;;;;;;;;;-5.81;79.61;98516.31;2601155;28;19925;-79
2022/04/04 04:39:26;;;;;;;;;;;;;;;-5.85;79.31;98510.25;2603406;28;20533;-79
2022/04/04 04:40:42;;;;;;;;;;;;;;;-5.82;78.61;98506.94;2602758;28;19928;-79
2022/04/04 04:41:57;;;;;;;;;;;;;;;-5.81;79.42;98506.13;2600644;28;19925;-79
2022/04/04 04:43:13;;;;;;;;;;;;;;;-5.80;79.40;98512.97;2601063;28;19925;-79
2022/04/04 04:44:29;;;;;;;;;;;;;;;-5.75;79.36;98510.59;2601478;28;19925;-79
2022/04/04 04:45:44;;;;;;;;;;;;;;;-5.68;79.23;98507.47;2601045;28;19924;-79
2022/04/04 04:47:00;;;;;;;;;;;;;;;-5.66;79.47;98503.31;2603287;28;19966;-79
2022/04/04 04:48:15;;;;;;;;;;;;;;;-5.63;79.77;98500.88;2602359;28;19921;-79
2022/04/04 04:49:32;;;;;;;;;;;;;;;-5.60;79.38;98507.78;2602715;28;19924;-79
2022/04/04 04:50:47;;;;;;;;;;;;;;;-5.56;78.99;98513.06;2602270;28;20433;-80
2022/04/04 04:52:04;;;;;;;;;;;;;;;-5.52;79.31;98508.91;2601053;28;19925;-79
2022/04/04 04:53:19;;;;;;;;;;;;;;;-5.46;78.33;98498.06;2603765;28;19924;-80
2022/04/04 04:54:35;;;;;;;;;;;;;;;-5.33;78.44;98500.25;2603345;28;19927;-79
2022/04/04 04:55:51;;;;;;;;;;;;;;;-5.28;78.45;98500.41;2604145;28;20002;-79
2022/04/04 04:57:06;;;;;;;;;;;;;;;-5.17;78.87;98493.13;2603429;28;20027;-79
2022/04/04 04:58:22;;;;;;;;;;;;;;;-5.17;79.24;98494.03;2603204;28;19925;-79
2022/04/04 04:59:37;;;;;;;;;;;;;;;-5.00;77.19;98497.19;2603372;28;19924;-79
2022/04/04 05:00:53;;;;;;;;;;;;;;;-4.89;77.46;98494.97;2603230;28;20308;-80
2022/04/04 05:02:08;;;;;;;;;;;;;;;-4.80;77.76;98498.69;2602655;28;20439;-79
2022/04/04 05:03:24;;;;;;;;;;;;;;;-4.69;76.85;98494.78;2602144;28;20014;-79
2022/04/04 05:04:39;;;;;;;;;;;;;;;-4.77;77.83;98497.06;2602842;28;20296;-79
2022/04/04 05:05:55;;;;;;;;;;;;;;;-4.81;78.42;98497.81;2601369;28;19925;-79
2022/04/04 05:07:10;;;;;;;;;;;;;;;-4.76;77.82;98493.72;2600796;28;19979;-79
2022/04/04 05:08:26;;;;;;;;;;;;;;;-4.78;77.80;98492.78;2602519;28;19924;-80
2022/04/04 05:09:41;;;;;;;;;;;;;;;-4.78;77.18;98487.69;2604149;28;19921;-79
2022/04/04 05:10:57;;;;;;;;;;;;;;;-4.80;77.27;98489.31;2604780;28;19936;-79
2022/04/04 05:12:12;;;;;;;;;;;;;;;-4.79;77.99;98496.16;2603293;28;19944;-79
2022/04/04 05:13:28;;;;;;;;;;;;;;;-4.80;77.52;98484.22;2601592;28;19928;-78
2022/04/04 05:14:43;;;;;;;;;;;;;;;-4.80;78.29;98491.88;2601522;28;19921;-79
2022/04/04 05:15:59;;;;;;;;;;;;;;;-4.81;79.27;98497.81;2602377;28;20725;-78
2022/04/04 05:17:15;;;;;;;;;;;;;;;-4.80;78.85;98496.13;2601799;28;19929;-79
2022/04/04 05:18:31;;;;;;;;;;;;;;;-4.79;79.22;98497.88;2602968;28;20437;-77
2022/04/04 05:19:47;;;;;;;;;;;;;;;-4.74;79.52;98489.53;2602365;28;19994;-79
2022/04/04 05:21:03;;;;;;;;;;;;;;;-4.73;78.93;98493.84;2601660;28;20398;-79
2022/04/04 05:22:19;;;;;;;;;;;;;;;-4.71;78.28;98492.19;2602772;28;20347;-79
2022/04/04 05:23:38;;;;;;;;;;;;;;;-4.66;78.52;98496.59;2600771;28;19978;-79
2022/04/04 05:24:53;;;;;;;;;;;;;;;-4.56;77.91;98502.03;2601395;28;19964;-79
2022/04/04 05:26:09;;;;;;;;;;;;;;;-4.52;77.36;98491.94;2602034;28;20489;-79
2022/04/04 05:27:24;;;;;;;;;;;;;;;-4.47;77.70;98488.72;2603006;28;19925;-80
2022/04/04 05:28:40;;;;;;;;;;;;;;;-4.42;76.94;98492.28;2601758;28;19932;-79
2022/04/04 05:29:55;;;;;;;;;;;;;;;-4.37;77.26;98491.56;2601084;28;19987;-80
2022/04/04 05:31:10;;;;;;;;;;;;;;;-4.32;77.84;98492.59;2600908;28;19948;-80
2022/04/04 05:32:28;;;;;;;;;;;;;;;-4.27;77.84;98488.50;2601637;28;19975;-80
2022/04/04 05:33:43;;;;;;;;;;;;;;;-4.18;77.32;98495.56;2603700;28;19987;-80
2022/04/04 05:34:59;;;;;;;;;;;;;;;-4.12;77.07;98491.53;2600314;28;19929;-80
2022/04/04 05:36:14;;;;;;;;;;;;;;;-4.02;76.38;98490.13;2600688;28;19925;-79
2022/04/04 05:37:29;;;;;;;;;;;;;;;-3.96;76.90;98492.00;2600691;28;20236;-79
2022/04/04 05:38:45;;;;;;;;;;;;;;;-3.91;76.79;98493.03;2602427;28;19925;-85
2022/04/04 05:40:01;;;;;;;;;;;;;;;-3.86;77.12;98491.47;2601446;28;19925;-80
2022/04/04 05:41:17;;;;;;;;;;;;;;;-3.85;76.96;98488.09;2601778;28;19967;-80
2022/04/04 05:42:34;;;;;;;;;;;;;;;-3.84;75.94;98487.25;2601307;28;19928;-80
2022/04/04 05:43:49;;;;;;;;;;;;;;;-3.83;76.20;98483.88;2603428;28;20407;-80
2022/04/04 05:45:07;;;;;;;;;;;;;;;-3.77;76.08;98487.44;2601866;28;19925;-79
2022/04/04 05:46:23;;;;;;;;;;;;;;;-3.75;75.98;98494.34;2602349;28;19952;-79
2022/04/04 05:47:39;;;;;;;;;;;;;;;-3.70;76.90;98484.25;2602274;28;19991;-78
2022/04/04 05:48:54;;;;;;;;;;;;;;;-3.64;76.41;98492.09;2600703;28;19925;-79
2022/04/04 05:50:09;;;;;;;;;;;;;;;-3.59;78.12;98494.78;2601293;28;19970;-83
2022/04/04 05:51:25;;;;;;;;;;;;;;;-3.55;77.92;98494.09;2603152;28;19970;-83
2022/04/04 05:52:42;;;;;;;;;;;;;;;-3.51;76.97;98495.91;2601707;28;20153;-83
2022/04/04 05:53:58;;;;;;;;;;;;;;;-3.47;76.48;98492.59;2600605;28;19928;-84
2022/04/04 05:55:14;;;;;;;;;;;;;;;-3.41;77.66;98490.22;2602144;28;19925;-83
2022/04/04 05:56:29;;;;;;;;;;;;;;;-3.36;77.67;98492.88;2599865;28;20368;-83
2022/04/04 05:57:45;;;;;;;;;;;;;;;-3.34;76.01;98486.16;2600305;28;20330;-84
2022/04/04 05:59:01;;;;;;;;;;;;;;;-3.28;75.45;98488.03;2602147;28;19990;-83
2022/04/04 06:00:16;;;;;;;;;;;;;;;-3.22;74.73;98487.28;2601910;28;19936;-84
2022/04/04 06:01:32;;;;;;;;;;;;;;;-3.10;73.89;98487.63;2600519;28;19924;-88
2022/04/04 06:02:47;;;;;;;;;;;;;;;-3.02;72.08;98490.41;2601445;28;19924;-87
2022/04/04 06:04:03;;;;;;;;;;;;;;;-2.94;70.76;98488.94;2600825;28;19931;-83
2022/04/04 06:05:18;;;;;;;;;;;;;;;-2.83;72.65;98489.22;2602455;28;20399;-83
2022/04/04 06:06:34;;;;;;;;;;;;;;;-2.76;72.20;98488.56;2599832;28;19925;-83
2022/04/04 06:07:50;;;;;;;;;;;;;;;-2.66;71.15;98486.22;2600579;28;19925;-83
2022/04/04 06:09:06;;;;;;;;;;;;;;;-2.58;70.44;98490.72;2602968;28;19925;-84
2022/04/04 06:10:21;;;;;;;;;;;;;;;-2.39;70.67;98491.19;2600514;28;19928;-83
2022/04/04 06:11:37;;;;;;;;;;;;;;;-2.18;69.19;98488.25;2599750;28;19925;-83
2022/04/04 06:12:52;;;;;;;;;;;;;;;-1.84;65.15;98490.75;2601744;28;20359;-83
2022/04/04 06:14:08;;;;;;;;;;;;;;;-1.67;64.80;98487.69;2600901;28;19921;-83
2022/04/04 06:15:23;;;;;;;;;;;;;;;-1.58;65.61;98481.03;2601885;28;20264;-83
2022/04/04 06:16:39;;;;;;;;;;;;;;;-1.51;64.97;98483.75;2601182;28;19928;-83
2022/04/04 06:17:54;;;;;;;;;;;;;;;-1.40;63.53;98479.69;2600016;28;19974;-84
2022/04/04 06:19:10;;;;;;;;;;;;;;;-1.32;64.34;98474.72;2602667;28;19925;-84
2022/04/04 06:20:25;;;;;;;;;;;;;;;-1.18;61.14;98480.13;2601818;28;19924;-86
2022/04/04 06:21:41;;;;;;;;;;;;;;;-1.08;61.29;98474.34;2601024;28;20349;-84
2022/04/04 06:22:56;;;;;;;;;;;;;;;-1.11;62.57;98469.16;2602204;28;20148;-87
2022/04/04 06:24:12;;;;;;;;;;;;;;;-1.02;61.31;98479.56;2601893;28;19925;-82
2022/04/04 06:25:27;;;;;;;;;;;;;;;-1.02;62.94;98479.56;2599504;28;19929;-83
2022/04/04 06:26:43;;;;;;;;;;;;;;;-1.00;61.92;98477.06;2601510;28;19925;-83
2022/04/04 06:27:58;;;;;;;;;;;;;;;-0.96;61.07;98475.41;2601186;28;19932;-83
2022/04/04 06:29:14;;;;;;;;;;;;;;;-0.91;62.20;98469.53;2601874;28;19925;-83
2022/04/04 06:30:29;;;;;;;;;;;;;;;-0.78;61.67;98472.28;2600414;28;20441;-83
2022/04/04 06:31:46;;;;;;;;;;;;;;;-0.74;61.41;98480.09;2601158;28;19921;-84
2022/04/04 06:33:05;;;;;;;;;;;;;;;-0.78;60.40;98478.31;2599714;28;19982;-83
2022/04/04 06:34:20;;;;;;;;;;;;;;;-0.79;60.88;98475.69;2600136;28;20261;-84
2022/04/04 06:35:36;;;;;;;;;;;;;;;-0.80;60.13;98468.81;2601169;28;19979;-83
2022/04/04 06:36:52;;;;;;;;;;;;;;;-0.72;59.97;98480.13;2602596;28;19925;-83
2022/04/04 06:38:08;;;;;;;;;;;;;;;-0.69;59.39;98477.59;2601231;28;20426;-83
2022/04/04 06:39:24;;;;;;;;;;;;;;;-0.74;58.65;98469.81;2600967;28;20014;-84